sensor_id;sensor_type;location;lat;lon;timestamp;pressure;altitude;pressure_sealevel;temperature;humidity
17438;BME280;73152;52.198;5.422;2023-12-04T00:00:08;101109.63;;;21.86;38.77
17438;BME280;73152;52.198;5.422;2023-12-04T00:02:38;101112.22;;;21.73;38.94
17438;BME280;73152;52.198;5.422;2023-12-04T00:05:08;101108.53;;;21.81;38.66
17438;BME280;73152;52.198;5.422;2023-12-04T00:07:37;101102.84;;;21.90;38.48
17438;BME280;73152;52.198;5.422;2023-12-04T00:10:09;101105.72;;;21.89;38.57
17438;BME280;73152;52.198;5.422;2023-12-04T00:12:37;101106.00;;;21.79;38.87
17438;BME280;73152;52.198;5.422;2023-12-04T00:15:09;101102.59;;;21.85;38.78
17438;BME280;73152;52.198;5.422;2023-12-04T00:17:38;101095.75;;;21.89;38.73
17438;BME280;73152;52.198;5.422;2023-12-04T00:20:08;101094.66;;;21.84;38.68
17438;BME280;73152;52.198;5.422;2023-12-04T00:22:38;101101.47;;;21.80;38.84
17438;BME280;73152;52.198;5.422;2023-12-04T00:25:10;101092.16;;;21.82;38.93
17438;BME280;73152;52.198;5.422;2023-12-04T00:27:38;101085.72;;;21.83;38.80
17438;BME280;73152;52.198;5.422;2023-12-04T00:30:09;101084.25;;;21.81;38.84
17438;BME280;73152;52.198;5.422;2023-12-04T00:32:38;101076.88;;;21.89;38.68
17438;BME280;73152;52.198;5.422;2023-12-04T00:35:07;101068.69;;;21.83;38.79
17438;BME280;73152;52.198;5.422;2023-12-04T00:37:36;101068.34;;;21.86;38.79
17438;BME280;73152;52.198;5.422;2023-12-04T00:40:09;101070.84;;;21.87;38.61
17438;BME280;73152;52.198;5.422;2023-12-04T00:42:38;101068.03;;;21.74;38.71
17438;BME280;73152;52.198;5.422;2023-12-04T00:45:09;101066.00;;;21.83;38.85
17438;BME280;73152;52.198;5.422;2023-12-04T00:47:37;101068.06;;;21.81;38.56
17438;BME280;73152;52.198;5.422;2023-12-04T00:50:08;101059.97;;;21.81;38.80
17438;BME280;73152;52.198;5.422;2023-12-04T00:52:37;101067.84;;;21.82;38.64
17438;BME280;73152;52.198;5.422;2023-12-04T00:55:09;101067.03;;;21.82;38.52
17438;BME280;73152;52.198;5.422;2023-12-04T00:57:38;101060.81;;;21.81;38.69
17438;BME280;73152;52.198;5.422;2023-12-04T01:00:09;101055.28;;;21.89;38.73
17438;BME280;73152;52.198;5.422;2023-12-04T01:02:38;101069.28;;;21.78;38.56
17438;BME280;73152;52.198;5.422;2023-12-04T01:05:07;101062.03;;;21.79;38.89
17438;BME280;73152;52.198;5.422;2023-12-04T01:07:36;101075.78;;;21.84;38.72
17438;BME280;73152;52.198;5.422;2023-12-04T01:10:09;101067.50;;;21.85;38.44
17438;BME280;73152;52.198;5.422;2023-12-04T01:12:38;101066.72;;;21.91;38.76
17438;BME280;73152;52.198;5.422;2023-12-04T01:15:08;101063.50;;;21.81;38.55
17438;BME280;73152;52.198;5.422;2023-12-04T01:17:37;101062.22;;;21.77;38.70
17438;BME280;73152;52.198;5.422;2023-12-04T01:20:08;101054.66;;;21.87;38.63
17438;BME280;73152;52.198;5.422;2023-12-04T01:22:37;101048.88;;;21.90;38.36
17438;BME280;73152;52.198;5.422;2023-12-04T01:25:09;101051.66;;;21.82;38.47
17438;BME280;73152;52.198;5.422;2023-12-04T01:27:38;101051.31;;;21.85;38.45
17438;BME280;73152;52.198;5.422;2023-12-04T01:30:09;101048.25;;;21.67;38.94
17438;BME280;73152;52.198;5.422;2023-12-04T01:32:39;101038.34;;;21.74;38.91
17438;BME280;73152;52.198;5.422;2023-12-04T01:35:08;101042.31;;;21.78;38.60
17438;BME280;73152;52.198;5.422;2023-12-04T01:37:37;101037.22;;;21.90;38.34
17438;BME280;73152;52.198;5.422;2023-12-04T01:40:11;101027.38;;;21.82;38.70
17438;BME280;73152;52.198;5.422;2023-12-04T01:42:42;101025.75;;;21.81;38.60
17438;BME280;73152;52.198;5.422;2023-12-04T01:45:11;101024.06;;;21.80;38.54
17438;BME280;73152;52.198;5.422;2023-12-04T01:47:40;101012.88;;;21.83;38.44
17438;BME280;73152;52.198;5.422;2023-12-04T01:50:10;101017.16;;;21.71;38.64
17438;BME280;73152;52.198;5.422;2023-12-04T01:52:39;101012.63;;;21.78;38.88
17438;BME280;73152;52.198;5.422;2023-12-04T01:55:11;101014.38;;;21.86;38.68
17438;BME280;73152;52.198;5.422;2023-12-04T01:57:41;101015.53;;;21.77;38.62
17438;BME280;73152;52.198;5.422;2023-12-04T02:00:12;101006.84;;;21.81;38.49
17438;BME280;73152;52.198;5.422;2023-12-04T02:02:42;101004.41;;;21.86;38.72
17438;BME280;73152;52.198;5.422;2023-12-04T02:05:13;101008.88;;;21.79;38.42
17438;BME280;73152;52.198;5.422;2023-12-04T02:07:42;100992.88;;;21.71;38.80
17438;BME280;73152;52.198;5.422;2023-12-04T02:10:14;100993.13;;;21.76;38.65
17438;BME280;73152;52.198;5.422;2023-12-04T02:12:43;100992.88;;;21.71;38.48
17438;BME280;73152;52.198;5.422;2023-12-04T02:15:12;100990.44;;;21.76;38.67
17438;BME280;73152;52.198;5.422;2023-12-04T02:17:43;100984.88;;;21.84;38.53
17438;BME280;73152;52.198;5.422;2023-12-04T02:20:13;100982.50;;;21.75;38.42
17438;BME280;73152;52.198;5.422;2023-12-04T02:22:42;100976.94;;;21.76;38.47
17438;BME280;73152;52.198;5.422;2023-12-04T02:25:14;100979.00;;;21.74;38.83
17438;BME280;73152;52.198;5.422;2023-12-04T02:27:50;100976.31;;;21.74;38.81
17438;BME280;73152;52.198;5.422;2023-12-04T02:30:23;100980.81;;;21.67;38.91
17438;BME280;73152;52.198;5.422;2023-12-04T02:32:54;100976.13;;;21.82;38.34
17438;BME280;73152;52.198;5.422;2023-12-04T02:35:29;100969.53;;;21.85;38.68
17438;BME280;73152;52.198;5.422;2023-12-04T02:38:01;100968.41;;;21.79;38.58
17438;BME280;73152;52.198;5.422;2023-12-04T02:40:33;100959.06;;;21.75;38.67
17438;BME280;73152;52.198;5.422;2023-12-04T02:43:03;100963.44;;;21.76;38.47
17438;BME280;73152;52.198;5.422;2023-12-04T02:45:32;100952.84;;;21.75;38.67
17438;BME280;73152;52.198;5.422;2023-12-04T02:48:01;100947.03;;;21.71;38.84
17438;BME280;73152;52.198;5.422;2023-12-04T02:50:29;100934.78;;;21.75;38.68
17438;BME280;73152;52.198;5.422;2023-12-04T02:52:58;100935.25;;;21.79;38.33
17438;BME280;73152;52.198;5.422;2023-12-04T02:55:28;100931.25;;;21.75;38.64
17438;BME280;73152;52.198;5.422;2023-12-04T02:57:59;100927.94;;;21.73;38.55
17438;BME280;73152;52.198;5.422;2023-12-04T03:00:28;100925.25;;;21.79;38.74
17438;BME280;73152;52.198;5.422;2023-12-04T03:02:57;100926.06;;;21.73;38.43
17438;BME280;73152;52.198;5.422;2023-12-04T03:05:26;100919.59;;;21.68;38.53
17438;BME280;73152;52.198;5.422;2023-12-04T03:07:54;100919.22;;;21.71;38.71
17438;BME280;73152;52.198;5.422;2023-12-04T03:10:23;100913.22;;;21.75;38.63
17438;BME280;73152;52.198;5.422;2023-12-04T03:12:52;100911.56;;;21.74;38.42
17438;BME280;73152;52.198;5.422;2023-12-04T03:15:23;100911.31;;;21.69;38.78
17438;BME280;73152;52.198;5.422;2023-12-04T03:17:54;100897.59;;;21.64;38.54
17438;BME280;73152;52.198;5.422;2023-12-04T03:20:23;100891.38;;;21.70;38.71
17438;BME280;73152;52.198;5.422;2023-12-04T03:22:52;100893.47;;;21.68;38.64
17438;BME280;73152;52.198;5.422;2023-12-04T03:25:21;100882.91;;;21.73;38.66
17438;BME280;73152;52.198;5.422;2023-12-04T03:27:50;100886.63;;;21.72;38.66
17438;BME280;73152;52.198;5.422;2023-12-04T03:30:18;100886.41;;;21.67;38.47
17438;BME280;73152;52.198;5.422;2023-12-04T03:32:50;100880.66;;;21.77;38.65
17438;BME280;73152;52.198;5.422;2023-12-04T03:35:19;100879.59;;;21.71;38.52
17438;BME280;73152;52.198;5.422;2023-12-04T03:37:47;100872.31;;;21.72;38.39
17438;BME280;73152;52.198;5.422;2023-12-04T03:40:17;100869.56;;;21.65;38.79
17438;BME280;73152;52.198;5.422;2023-12-04T03:42:46;100865.03;;;21.72;38.45
17438;BME280;73152;52.198;5.422;2023-12-04T03:45:14;100861.13;;;21.75;38.50
17438;BME280;73152;52.198;5.422;2023-12-04T03:47:43;100862.34;;;21.72;38.56
17438;BME280;73152;52.198;5.422;2023-12-04T03:50:15;100853.63;;;21.70;38.59
17438;BME280;73152;52.198;5.422;2023-12-04T03:52:43;100854.47;;;21.71;38.76
17438;BME280;73152;52.198;5.422;2023-12-04T03:55:12;100852.13;;;21.61;38.49
17438;BME280;73152;52.198;5.422;2023-12-04T03:57:42;100855.31;;;21.71;38.62
17438;BME280;73152;52.198;5.422;2023-12-04T04:00:12;100853.22;;;21.73;38.55
17438;BME280;73152;52.198;5.422;2023-12-04T04:02:43;100844.06;;;21.68;38.41
17438;BME280;73152;52.198;5.422;2023-12-04T04:05:15;100842.84;;;21.70;38.57
17438;BME280;73152;52.198;5.422;2023-12-04T04:07:45;100831.66;;;21.73;38.31
17438;BME280;73152;52.198;5.422;2023-12-04T04:10:14;100831.44;;;21.75;38.56
17438;BME280;73152;52.198;5.422;2023-12-04T04:12:43;100831.81;;;21.65;38.63
17438;BME280;73152;52.198;5.422;2023-12-04T04:15:12;100822.31;;;21.69;38.57
17438;BME280;73152;52.198;5.422;2023-12-04T04:17:41;100823.31;;;21.68;38.75
17438;BME280;73152;52.198;5.422;2023-12-04T04:20:11;100819.19;;;21.72;38.46
17438;BME280;73152;52.198;5.422;2023-12-04T04:22:43;100814.84;;;21.78;38.43
17438;BME280;73152;52.198;5.422;2023-12-04T04:25:12;100814.22;;;21.76;38.33
17438;BME280;73152;52.198;5.422;2023-12-04T04:27:41;100812.16;;;21.78;38.56
17438;BME280;73152;52.198;5.422;2023-12-04T04:30:11;100803.66;;;21.74;38.27
17438;BME280;73152;52.198;5.422;2023-12-04T04:32:41;100805.91;;;21.71;38.54
17438;BME280;73152;52.198;5.422;2023-12-04T04:35:10;100801.97;;;21.73;38.31
17438;BME280;73152;52.198;5.422;2023-12-04T04:37:42;100803.44;;;21.69;38.36
17438;BME280;73152;52.198;5.422;2023-12-04T04:40:12;100801.97;;;21.73;38.54
17438;BME280;73152;52.198;5.422;2023-12-04T04:42:40;100802.59;;;21.75;38.28
17438;BME280;73152;52.198;5.422;2023-12-04T04:45:10;100790.09;;;21.61;38.81
17438;BME280;73152;52.198;5.422;2023-12-04T04:47:39;100791.53;;;21.51;38.78
17438;BME280;73152;52.198;5.422;2023-12-04T04:50:08;100795.09;;;21.58;39.12
17438;BME280;73152;52.198;5.422;2023-12-04T04:52:37;100787.63;;;21.60;39.03
17438;BME280;73152;52.198;5.422;2023-12-04T04:55:09;100788.66;;;21.59;38.91
17438;BME280;73152;52.198;5.422;2023-12-04T04:57:38;100798.81;;;21.63;38.87
17438;BME280;73152;52.198;5.422;2023-12-04T05:00:08;100797.19;;;21.62;38.89
17438;BME280;73152;52.198;5.422;2023-12-04T05:02:37;100787.66;;;21.73;38.81
17438;BME280;73152;52.198;5.422;2023-12-04T05:05:07;100786.41;;;21.75;38.92
17438;BME280;73152;52.198;5.422;2023-12-04T05:07:36;100790.84;;;21.89;38.47
17438;BME280;73152;52.198;5.422;2023-12-04T05:10:09;100788.63;;;22.12;38.34
17438;BME280;73152;52.198;5.422;2023-12-04T05:12:38;100781.97;;;22.28;37.96
17438;BME280;73152;52.198;5.422;2023-12-04T05:15:07;100781.16;;;22.41;37.57
17438;BME280;73152;52.198;5.422;2023-12-04T05:17:36;100781.56;;;22.44;37.48
17438;BME280;73152;52.198;5.422;2023-12-04T05:20:07;100774.91;;;22.47;37.64
17438;BME280;73152;52.198;5.422;2023-12-04T05:22:36;100769.72;;;22.52;37.66
17438;BME280;73152;52.198;5.422;2023-12-04T05:25:08;100767.03;;;22.52;37.39
17438;BME280;73152;52.198;5.422;2023-12-04T05:27:37;100766.22;;;22.58;37.52
17438;BME280;73152;52.198;5.422;2023-12-04T05:30:07;100767.25;;;22.57;37.64
17438;BME280;73152;52.198;5.422;2023-12-04T05:32:36;100763.28;;;22.59;37.13
17438;BME280;73152;52.198;5.422;2023-12-04T05:35:06;100760.16;;;22.56;37.64
17438;BME280;73152;52.198;5.422;2023-12-04T05:37:35;100762.69;;;22.51;37.76
17438;BME280;73152;52.198;5.422;2023-12-04T05:40:09;100756.66;;;22.49;37.75
17438;BME280;73152;52.198;5.422;2023-12-04T05:42:38;100751.06;;;22.44;37.84
17438;BME280;73152;52.198;5.422;2023-12-04T05:45:09;100742.34;;;22.42;37.81
17438;BME280;73152;52.198;5.422;2023-12-04T05:47:38;100739.81;;;22.40;37.94
17438;BME280;73152;52.198;5.422;2023-12-04T05:50:08;100738.81;;;22.35;37.86
17438;BME280;73152;52.198;5.422;2023-12-04T05:52:37;100728.81;;;22.29;37.87
17438;BME280;73152;52.198;5.422;2023-12-04T05:55:10;100725.91;;;22.24;37.94
17438;BME280;73152;52.198;5.422;2023-12-04T05:57:39;100722.19;;;22.11;38.40
17438;BME280;73152;52.198;5.422;2023-12-04T06:00:10;100726.94;;;22.09;38.24
17438;BME280;73152;52.198;5.422;2023-12-04T06:02:39;100720.31;;;21.92;38.90
17438;BME280;73152;52.198;5.422;2023-12-04T06:05:09;100716.75;;;21.85;38.80
17438;BME280;73152;52.198;5.422;2023-12-04T06:07:38;100718.81;;;21.83;38.80
17438;BME280;73152;52.198;5.422;2023-12-04T06:10:10;100708.19;;;21.75;39.04
17438;BME280;73152;52.198;5.422;2023-12-04T06:12:39;100709.44;;;21.66;39.19
17438;BME280;73152;52.198;5.422;2023-12-04T06:15:09;100706.94;;;21.71;39.12
17438;BME280;73152;52.198;5.422;2023-12-04T06:17:38;100711.50;;;21.71;38.80
17438;BME280;73152;52.198;5.422;2023-12-04T06:20:08;100720.84;;;21.68;39.00
17438;BME280;73152;52.198;5.422;2023-12-04T06:22:38;100718.16;;;21.75;38.83
17438;BME280;73152;52.198;5.422;2023-12-04T06:25:12;100712.97;;;21.73;38.98
17438;BME280;73152;52.198;5.422;2023-12-04T06:27:42;100716.06;;;21.70;39.03
17438;BME280;73152;52.198;5.422;2023-12-04T06:30:13;100718.13;;;21.62;39.08
17438;BME280;73152;52.198;5.422;2023-12-04T06:32:43;100711.25;;;21.53;39.06
17438;BME280;73152;52.198;5.422;2023-12-04T06:35:14;100708.56;;;21.53;39.03
17438;BME280;73152;52.198;5.422;2023-12-04T06:37:45;100693.41;;;21.45;39.17
17438;BME280;73152;52.198;5.422;2023-12-04T06:40:18;100705.44;;;21.49;38.91
17438;BME280;73152;52.198;5.422;2023-12-04T06:42:48;100693.41;;;21.45;39.07
17438;BME280;73152;52.198;5.422;2023-12-04T06:45:19;100691.31;;;21.34;39.50
17438;BME280;73152;52.198;5.422;2023-12-04T06:47:49;100682.00;;;21.43;39.37
17438;BME280;73152;52.198;5.422;2023-12-04T06:50:19;100679.28;;;21.36;39.26
17438;BME280;73152;52.198;5.422;2023-12-04T06:52:47;100679.06;;;21.31;39.15
17438;BME280;73152;52.198;5.422;2023-12-04T06:55:20;100676.94;;;21.14;39.49
17438;BME280;73152;52.198;5.422;2023-12-04T06:57:49;100677.38;;;21.24;39.54
17438;BME280;73152;52.198;5.422;2023-12-04T07:00:18;100670.78;;;21.39;39.30
17438;BME280;73152;52.198;5.422;2023-12-04T07:02:47;100669.97;;;21.52;38.89
17438;BME280;73152;52.198;5.422;2023-12-04T07:05:16;100662.34;;;21.75;38.69
17438;BME280;73152;52.198;5.422;2023-12-04T07:07:45;100661.97;;;22.18;37.80
17438;BME280;73152;52.198;5.422;2023-12-04T07:10:14;100655.28;;;22.53;37.16
17438;BME280;73152;52.198;5.422;2023-12-04T07:12:46;100656.88;;;22.80;36.78
17438;BME280;73152;52.198;5.422;2023-12-04T07:15:14;100655.06;;;23.12;35.87
17438;BME280;73152;52.198;5.422;2023-12-04T07:17:43;100651.25;;;23.32;35.57
17438;BME280;73152;52.198;5.422;2023-12-04T07:20:12;100651.09;;;23.59;35.41
17438;BME280;73152;52.198;5.422;2023-12-04T07:22:41;100655.34;;;23.73;34.93
17438;BME280;73152;52.198;5.422;2023-12-04T07:25:10;100642.66;;;23.73;35.02
17438;BME280;73152;52.198;5.422;2023-12-04T07:27:38;100646.88;;;23.69;35.14
17438;BME280;73152;52.198;5.422;2023-12-04T07:30:11;100637.50;;;23.65;35.10
17438;BME280;73152;52.198;5.422;2023-12-04T07:32:40;100635.75;;;23.53;34.94
17438;BME280;73152;52.198;5.422;2023-12-04T07:35:09;100641.22;;;23.39;35.17
17438;BME280;73152;52.198;5.422;2023-12-04T07:37:38;100636.69;;;23.27;35.68
17438;BME280;73152;52.198;5.422;2023-12-04T07:40:08;100630.50;;;23.20;35.88
17438;BME280;73152;52.198;5.422;2023-12-04T07:42:37;100633.47;;;23.05;35.82
17438;BME280;73152;52.198;5.422;2023-12-04T07:45:10;100645.63;;;22.90;36.13
17438;BME280;73152;52.198;5.422;2023-12-04T07:47:40;100643.63;;;22.72;36.71
17438;BME280;73152;52.198;5.422;2023-12-04T07:50:10;100639.69;;;22.55;36.73
17438;BME280;73152;52.198;5.422;2023-12-04T07:52:39;100636.81;;;22.37;37.02
17438;BME280;73152;52.198;5.422;2023-12-04T07:55:08;100643.47;;;22.28;37.35
17438;BME280;73152;52.198;5.422;2023-12-04T07:57:37;100628.31;;;22.20;37.17
17438;BME280;73152;52.198;5.422;2023-12-04T08:00:11;100625.84;;;22.05;37.78
17438;BME280;73152;52.198;5.422;2023-12-04T08:02:40;100626.03;;;21.91;37.91
17438;BME280;73152;52.198;5.422;2023-12-04T08:05:10;100627.09;;;21.83;37.94
17438;BME280;73152;52.198;5.422;2023-12-04T08:07:39;100626.66;;;21.73;37.92
17438;BME280;73152;52.198;5.422;2023-12-04T08:10:09;100624.97;;;21.72;38.37
17438;BME280;73152;52.198;5.422;2023-12-04T08:12:37;100627.50;;;21.67;38.27
17438;BME280;73152;52.198;5.422;2023-12-04T08:15:10;100629.34;;;21.73;38.10
17438;BME280;73152;52.198;5.422;2023-12-04T08:17:39;100629.13;;;21.68;38.36
17438;BME280;73152;52.198;5.422;2023-12-04T08:20:09;100634.94;;;21.52;38.33
17438;BME280;73152;52.198;5.422;2023-12-04T08:22:39;100625.38;;;21.56;38.25
17438;BME280;73152;52.198;5.422;2023-12-04T08:25:10;100631.44;;;21.65;38.07
17438;BME280;73152;52.198;5.422;2023-12-04T08:27:39;100627.69;;;21.66;38.00
17438;BME280;73152;52.198;5.422;2023-12-04T08:30:11;100628.72;;;21.58;38.46
17438;BME280;73152;52.198;5.422;2023-12-04T08:32:40;100619.19;;;21.62;38.27
17438;BME280;73152;52.198;5.422;2023-12-04T08:35:09;100623.13;;;21.66;38.24
17438;BME280;73152;52.198;5.422;2023-12-04T08:37:38;100625.63;;;21.74;38.19
17438;BME280;73152;52.198;5.422;2023-12-04T08:40:09;100621.66;;;21.64;38.12
17438;BME280;73152;52.198;5.422;2023-12-04T08:42:38;100625.81;;;21.60;38.21
17438;BME280;73152;52.198;5.422;2023-12-04T08:45:12;100610.47;;;21.73;37.90
17438;BME280;73152;52.198;5.422;2023-12-04T08:47:41;100611.09;;;22.14;37.20
17438;BME280;73152;52.198;5.422;2023-12-04T08:50:10;100605.84;;;22.46;36.54
17438;BME280;73152;52.198;5.422;2023-12-04T08:52:39;100607.25;;;22.68;35.96
17438;BME280;73152;52.198;5.422;2023-12-04T08:55:09;100603.66;;;22.80;36.07
17438;BME280;73152;52.198;5.422;2023-12-04T08:57:38;100605.47;;;23.00;35.64
17438;BME280;73152;52.198;5.422;2023-12-04T09:00:09;100593.53;;;23.14;34.88
17438;BME280;73152;52.198;5.422;2023-12-04T09:02:41;100600.06;;;23.31;34.88
17438;BME280;73152;52.198;5.422;2023-12-04T09:05:09;100601.88;;;23.43;34.74
17438;BME280;73152;52.198;5.422;2023-12-04T09:07:36;100588.53;;;23.48;34.60
17438;BME280;73152;52.198;5.422;2023-12-04T09:10:06;100591.25;;;23.48;34.15
17438;BME280;73152;52.198;5.422;2023-12-04T09:12:35;100585.78;;;23.55;34.24
17438;BME280;73152;52.198;5.422;2023-12-04T09:15:05;100583.13;;;23.48;34.51
17438;BME280;73152;52.198;5.422;2023-12-04T09:17:34;100588.13;;;23.45;34.36
17438;BME280;73152;52.198;5.422;2023-12-04T09:20:07;100576.81;;;23.23;34.63
17438;BME280;73152;52.198;5.422;2023-12-04T09:22:36;100579.31;;;23.25;34.78
17438;BME280;73152;52.198;5.422;2023-12-04T09:25:08;100587.28;;;23.13;35.04
17438;BME280;73152;52.198;5.422;2023-12-04T09:27:37;100581.75;;;23.02;35.04
17438;BME280;73152;52.198;5.422;2023-12-04T09:30:07;100579.53;;;22.79;35.07
17438;BME280;73152;52.198;5.422;2023-12-04T09:32:36;100586.00;;;22.78;35.48
17438;BME280;73152;52.198;5.422;2023-12-04T09:35:09;100580.22;;;22.68;35.71
17438;BME280;73152;52.198;5.422;2023-12-04T09:37:37;100577.56;;;22.61;35.45
17438;BME280;73152;52.198;5.422;2023-12-04T09:40:08;100581.72;;;22.44;35.73
17438;BME280;73152;52.198;5.422;2023-12-04T09:42:39;100570.56;;;22.34;35.90
17438;BME280;73152;52.198;5.422;2023-12-04T09:45:09;100578.50;;;22.23;36.14
17438;BME280;73152;52.198;5.422;2023-12-04T09:47:40;100576.84;;;22.15;36.06
17438;BME280;73152;52.198;5.422;2023-12-04T09:50:12;100572.69;;;22.06;36.10
17438;BME280;73152;52.198;5.422;2023-12-04T09:52:40;100576.69;;;21.90;36.61
17438;BME280;73152;52.198;5.422;2023-12-04T09:55:09;100568.97;;;21.94;36.39
17438;BME280;73152;52.198;5.422;2023-12-04T09:57:38;100569.16;;;21.79;36.52
17438;BME280;73152;52.198;5.422;2023-12-04T10:00:12;100572.69;;;21.73;36.63
17438;BME280;73152;52.198;5.422;2023-12-04T10:02:42;100566.47;;;21.73;36.53
17438;BME280;73152;52.198;5.422;2023-12-04T10:05:13;100565.63;;;21.72;36.90
17438;BME280;73152;52.198;5.422;2023-12-04T10:07:42;100556.13;;;21.76;36.78
17438;BME280;73152;52.198;5.422;2023-12-04T10:10:11;100559.03;;;21.81;36.48
17438;BME280;73152;52.198;5.422;2023-12-04T10:12:40;100544.50;;;21.76;36.43
17438;BME280;73152;52.198;5.422;2023-12-04T10:15:11;100550.09;;;21.74;36.52
17438;BME280;73152;52.198;5.422;2023-12-04T10:17:41;100553.63;;;21.68;36.89
17438;BME280;73152;52.198;5.422;2023-12-04T10:20:15;100537.03;;;21.58;36.78
17438;BME280;73152;52.198;5.422;2023-12-04T10:22:55;100543.88;;;21.74;36.32
17438;BME280;73152;52.198;5.422;2023-12-04T10:25:27;100539.94;;;21.76;36.35
17438;BME280;73152;52.198;5.422;2023-12-04T10:28:08;100533.69;;;21.89;36.38
17438;BME280;73152;52.198;5.422;2023-12-04T10:30:38;100531.59;;;22.10;35.95
17438;BME280;73152;52.198;5.422;2023-12-04T10:33:08;100523.66;;;22.22;35.71
17438;BME280;73152;52.198;5.422;2023-12-04T10:35:40;100518.84;;;22.31;35.31
17438;BME280;73152;52.198;5.422;2023-12-04T10:38:10;100513.25;;;22.26;35.42
17438;BME280;73152;52.198;5.422;2023-12-04T10:40:40;100519.31;;;22.28;35.30
17438;BME280;73152;52.198;5.422;2023-12-04T10:43:15;100519.22;;;22.41;35.22
17438;BME280;73152;52.198;5.422;2023-12-04T10:45:47;100511.06;;;22.54;35.22
17438;BME280;73152;52.198;5.422;2023-12-04T10:48:18;100503.94;;;22.72;34.76
17438;BME280;73152;52.198;5.422;2023-12-04T10:50:50;100495.97;;;22.84;34.66
17438;BME280;73152;52.198;5.422;2023-12-04T10:53:19;100488.69;;;22.85;34.39
17438;BME280;73152;52.198;5.422;2023-12-04T10:55:53;100481.78;;;22.95;34.31
17438;BME280;73152;52.198;5.422;2023-12-04T10:58:26;100482.16;;;22.99;34.17
17438;BME280;73152;52.198;5.422;2023-12-04T11:00:58;100476.72;;;23.05;33.90
17438;BME280;73152;52.198;5.422;2023-12-04T11:03:34;100471.97;;;23.01;34.13
17438;BME280;73152;52.198;5.422;2023-12-04T11:06:10;100475.66;;;23.06;34.10
17438;BME280;73152;52.198;5.422;2023-12-04T11:08:43;100466.97;;;23.04;34.03
17438;BME280;73152;52.198;5.422;2023-12-04T11:11:20;100465.72;;;23.00;34.13
17438;BME280;73152;52.198;5.422;2023-12-04T11:13:54;100455.97;;;22.99;34.17
17438;BME280;73152;52.198;5.422;2023-12-04T11:16:33;100454.75;;;22.95;33.96
17438;BME280;73152;52.198;5.422;2023-12-04T11:19:14;100449.19;;;22.90;34.29
17438;BME280;73152;52.198;5.422;2023-12-04T11:21:50;100440.06;;;22.85;34.30
17438;BME280;73152;52.198;5.422;2023-12-04T11:24:21;100438.69;;;22.75;34.34
17438;BME280;73152;52.198;5.422;2023-12-04T11:26:51;100428.25;;;22.79;34.30
17438;BME280;73152;52.198;5.422;2023-12-04T11:29:21;100435.75;;;22.77;34.34
17438;BME280;73152;52.198;5.422;2023-12-04T11:31:51;100423.78;;;22.66;34.80
17438;BME280;73152;52.198;5.422;2023-12-04T11:34:20;100426.06;;;22.69;34.42
17438;BME280;73152;52.198;5.422;2023-12-04T11:36:51;100414.84;;;22.59;34.73
17438;BME280;73152;52.198;5.422;2023-12-04T11:39:22;100417.44;;;22.48;35.04
17438;BME280;73152;52.198;5.422;2023-12-04T11:41:51;100409.56;;;22.40;35.15
17438;BME280;73152;52.198;5.422;2023-12-04T11:44:20;100404.75;;;22.48;34.69
17438;BME280;73152;52.198;5.422;2023-12-04T11:46:56;100408.78;;;22.33;35.16
17438;BME280;73152;52.198;5.422;2023-12-04T11:49:30;100406.00;;;22.46;34.76
17438;BME280;73152;52.198;5.422;2023-12-04T11:52:04;100410.69;;;22.26;35.40
17438;BME280;73152;52.198;5.422;2023-12-04T11:54:56;100412.38;;;22.20;35.38
17438;BME280;73152;52.198;5.422;2023-12-04T11:57:26;100405.34;;;22.12;35.48
17438;BME280;73152;52.198;5.422;2023-12-04T12:00:14;100397.44;;;22.18;35.03
17438;BME280;73152;52.198;5.422;2023-12-04T12:03:00;100400.06;;;21.93;35.80
17438;BME280;73152;52.198;5.422;2023-12-04T12:05:33;100393.38;;;22.02;35.62
17438;BME280;73152;52.198;5.422;2023-12-04T12:08:08;100394.44;;;21.94;35.64
17438;BME280;73152;52.198;5.422;2023-12-04T12:10:37;100395.47;;;21.93;35.64
17438;BME280;73152;52.198;5.422;2023-12-04T12:13:06;100385.53;;;21.87;35.51
17438;BME280;73152;52.198;5.422;2023-12-04T12:15:35;100384.47;;;21.82;35.97
17438;BME280;73152;52.198;5.422;2023-12-04T12:18:06;100381.78;;;21.82;35.88
17438;BME280;73152;52.198;5.422;2023-12-04T12:20:37;100377.03;;;21.77;35.85
17438;BME280;73152;52.198;5.422;2023-12-04T12:23:08;100374.94;;;21.79;35.87
17438;BME280;73152;52.198;5.422;2023-12-04T12:25:38;100376.63;;;21.80;35.59
17438;BME280;73152;52.198;5.422;2023-12-04T12:28:07;100370.81;;;21.83;35.85
17438;BME280;73152;52.198;5.422;2023-12-04T12:30:37;100370.19;;;21.88;35.42
17438;BME280;73152;52.198;5.422;2023-12-04T12:33:07;100366.59;;;22.00;35.24
17438;BME280;73152;52.198;5.422;2023-12-04T12:35:36;100369.25;;;22.07;34.91
17438;BME280;73152;52.198;5.422;2023-12-04T12:38:08;100366.53;;;22.07;35.11
17438;BME280;73152;52.198;5.422;2023-12-04T12:40:37;100363.38;;;22.17;35.18
17438;BME280;73152;52.198;5.422;2023-12-04T12:43:07;100362.31;;;22.24;34.96
17438;BME280;73152;52.198;5.422;2023-12-04T12:45:40;100353.31;;;22.37;34.93
17438;BME280;73152;52.198;5.422;2023-12-04T12:48:11;100349.13;;;22.41;34.54
17438;BME280;73152;52.198;5.422;2023-12-04T12:50:42;100334.97;;;22.45;34.66
17438;BME280;73152;52.198;5.422;2023-12-04T12:53:14;100328.03;;;22.56;34.36
17438;BME280;73152;52.198;5.422;2023-12-04T12:55:44;100324.91;;;22.59;34.13
17438;BME280;73152;52.198;5.422;2023-12-04T12:58:14;100328.34;;;22.72;33.91
17438;BME280;73152;52.198;5.422;2023-12-04T13:00:47;100313.56;;;22.75;33.63
17438;BME280;73152;52.198;5.422;2023-12-04T13:03:16;100310.00;;;22.81;33.79
17438;BME280;73152;52.198;5.422;2023-12-04T13:05:46;100311.47;;;22.77;33.90